sensor_id;sensor_type;location;lat;lon;timestamp;temperature;humidity
21246;DHT22;10781;50.928;4.440;2022-07-19T00:00:26;25.90;81.30
21246;DHT22;10781;50.928;4.440;2022-07-19T00:02:53;25.90;81.70
21246;DHT22;10781;50.928;4.440;2022-07-19T00:05:19;25.90;81.90
21246;DHT22;10781;50.928;4.440;2022-07-19T00:07:45;25.90;82.50
21246;DHT22;10781;50.928;4.440;2022-07-19T00:10:13;25.80;82.60
21246;DHT22;10781;50.928;4.440;2022-07-19T00:12:40;25.70;82.10
21246;DHT22;10781;50.928;4.440;2022-07-19T00:15:08;25.50;82.90
21246;DHT22;10781;50.928;4.440;2022-07-19T00:17:37;25.60;84.10
21246;DHT22;10781;50.928;4.440;2022-07-19T00:20:04;25.60;83.40
21246;DHT22;10781;50.928;4.440;2022-07-19T00:22:29;25.70;84.00
21246;DHT22;10781;50.928;4.440;2022-07-19T00:24:55;25.80;84.60
21246;DHT22;10781;50.928;4.440;2022-07-19T00:27:21;25.80;84.70
21246;DHT22;10781;50.928;4.440;2022-07-19T00:29:46;25.80;84.40
21246;DHT22;10781;50.928;4.440;2022-07-19T00:32:12;25.60;84.80
21246;DHT22;10781;50.928;4.440;2022-07-19T00:34:38;25.60;85.40
21246;DHT22;10781;50.928;4.440;2022-07-19T00:37:03;25.60;85.90
21246;DHT22;10781;50.928;4.440;2022-07-19T00:39:29;25.60;87.30
21246;DHT22;10781;50.928;4.440;2022-07-19T00:41:55;25.60;87.20
21246;DHT22;10781;50.928;4.440;2022-07-19T00:44:21;25.60;88.10
21246;DHT22;10781;50.928;4.440;2022-07-19T00:46:47;25.60;88.30
21246;DHT22;10781;50.928;4.440;2022-07-19T00:49:13;25.70;88.80
21246;DHT22;10781;50.928;4.440;2022-07-19T00:51:39;25.60;89.30
21246;DHT22;10781;50.928;4.440;2022-07-19T00:54:09;25.60;89.80
21246;DHT22;10781;50.928;4.440;2022-07-19T00:56:37;25.40;90.00
21246;DHT22;10781;50.928;4.440;2022-07-19T00:59:04;25.20;90.60
21246;DHT22;10781;50.928;4.440;2022-07-19T01:01:31;25.30;90.80
21246;DHT22;10781;50.928;4.440;2022-07-19T01:03:57;25.30;90.80
21246;DHT22;10781;50.928;4.440;2022-07-19T01:06:23;25.30;91.00
21246;DHT22;10781;50.928;4.440;2022-07-19T01:08:49;25.30;91.10
21246;DHT22;10781;50.928;4.440;2022-07-19T01:11:14;25.20;91.20
21246;DHT22;10781;50.928;4.440;2022-07-19T01:13:40;25.10;91.60
21246;DHT22;10781;50.928;4.440;2022-07-19T01:16:06;25.00;91.60
21246;DHT22;10781;50.928;4.440;2022-07-19T01:18:32;25.00;91.90
21246;DHT22;10781;50.928;4.440;2022-07-19T01:20:58;25.00;92.30
21246;DHT22;10781;50.928;4.440;2022-07-19T01:23:26;24.90;92.30
21246;DHT22;10781;50.928;4.440;2022-07-19T01:25:52;24.90;92.80
21246;DHT22;10781;50.928;4.440;2022-07-19T01:28:17;24.80;93.20
21246;DHT22;10781;50.928;4.440;2022-07-19T01:30:43;24.80;93.60
21246;DHT22;10781;50.928;4.440;2022-07-19T01:33:09;24.80;93.60
21246;DHT22;10781;50.928;4.440;2022-07-19T01:35:34;24.80;94.30
21246;DHT22;10781;50.928;4.440;2022-07-19T01:38:00;24.80;94.70
21246;DHT22;10781;50.928;4.440;2022-07-19T01:40:26;24.70;95.30
21246;DHT22;10781;50.928;4.440;2022-07-19T01:42:52;24.60;95.80
21246;DHT22;10781;50.928;4.440;2022-07-19T01:45:19;24.60;96.30
21246;DHT22;10781;50.928;4.440;2022-07-19T01:47:45;24.60;97.10
21246;DHT22;10781;50.928;4.440;2022-07-19T01:50:14;24.70;97.60
21246;DHT22;10781;50.928;4.440;2022-07-19T01:52:40;24.70;98.30
21246;DHT22;10781;50.928;4.440;2022-07-19T01:55:06;24.70;98.30
21246;DHT22;10781;50.928;4.440;2022-07-19T01:57:32;24.60;99.00
21246;DHT22;10781;50.928;4.440;2022-07-19T01:59:58;24.50;99.70
21246;DHT22;10781;50.928;4.440;2022-07-19T02:02:24;24.30;99.90
21246;DHT22;10781;50.928;4.440;2022-07-19T02:04:49;24.30;99.90
21246;DHT22;10781;50.928;4.440;2022-07-19T02:07:15;24.30;99.90
21246;DHT22;10781;50.928;4.440;2022-07-19T02:09:41;24.30;99.90
21246;DHT22;10781;50.928;4.440;2022-07-19T02:12:06;24.20;99.90
21246;DHT22;10781;50.928;4.440;2022-07-19T02:14:32;24.20;99.90
21246;DHT22;10781;50.928;4.440;2022-07-19T02:16:58;24.10;99.90
21246;DHT22;10781;50.928;4.440;2022-07-19T02:19:24;24.20;99.90
21246;DHT22;10781;50.928;4.440;2022-07-19T02:21:49;24.20;99.90
21246;DHT22;10781;50.928;4.440;2022-07-19T02:24:15;24.30;99.90
21246;DHT22;10781;50.928;4.440;2022-07-19T02:26:41;24.20;99.90
21246;DHT22;10781;50.928;4.440;2022-07-19T02:29:07;24.00;99.90
21246;DHT22;10781;50.928;4.440;2022-07-19T02:31:33;23.90;99.90
21246;DHT22;10781;50.928;4.440;2022-07-19T02:33:59;24.00;99.90
21246;DHT22;10781;50.928;4.440;2022-07-19T02:36:25;24.20;99.90
21246;DHT22;10781;50.928;4.440;2022-07-19T02:38:51;24.30;99.90
21246;DHT22;10781;50.928;4.440;2022-07-19T02:41:17;24.30;99.90
21246;DHT22;10781;50.928;4.440;2022-07-19T02:43:43;24.30;99.90
21246;DHT22;10781;50.928;4.440;2022-07-19T02:46:09;24.10;99.90
21246;DHT22;10781;50.928;4.440;2022-07-19T02:48:34;23.80;99.90
21246;DHT22;10781;50.928;4.440;2022-07-19T02:51:00;23.60;99.90
21246;DHT22;10781;50.928;4.440;2022-07-19T02:53:26;23.60;99.90
21246;DHT22;10781;50.928;4.440;2022-07-19T02:55:51;23.70;99.90
21246;DHT22;10781;50.928;4.440;2022-07-19T02:58:17;23.90;99.90
21246;DHT22;10781;50.928;4.440;2022-07-19T03:00:43;24.00;99.90
21246;DHT22;10781;50.928;4.440;2022-07-19T03:03:09;24.00;99.90
21246;DHT22;10781;50.928;4.440;2022-07-19T03:05:53;23.90;99.90
21246;DHT22;10781;50.928;4.440;2022-07-19T03:08:19;23.80;99.90
21246;DHT22;10781;50.928;4.440;2022-07-19T03:10:44;23.80;99.90
21246;DHT22;10781;50.928;4.440;2022-07-19T03:13:10;23.70;99.90
21246;DHT22;10781;50.928;4.440;2022-07-19T03:15:36;23.60;99.90
21246;DHT22;10781;50.928;4.440;2022-07-19T03:18:03;23.70;99.90
21246;DHT22;10781;50.928;4.440;2022-07-19T03:20:28;23.70;99.90
21246;DHT22;10781;50.928;4.440;2022-07-19T03:22:54;23.50;99.90
21246;DHT22;10781;50.928;4.440;2022-07-19T03:25:20;23.50;99.90
21246;DHT22;10781;50.928;4.440;2022-07-19T03:27:45;23.60;99.90
21246;DHT22;10781;50.928;4.440;2022-07-19T03:30:11;23.70;99.90
21246;DHT22;10781;50.928;4.440;2022-07-19T03:32:37;23.60;99.90
21246;DHT22;10781;50.928;4.440;2022-07-19T03:35:03;23.60;99.90
21246;DHT22;10781;50.928;4.440;2022-07-19T03:37:28;23.60;99.90
21246;DHT22;10781;50.928;4.440;2022-07-19T03:39:54;23.40;99.90
21246;DHT22;10781;50.928;4.440;2022-07-19T03:42:20;23.30;99.90
21246;DHT22;10781;50.928;4.440;2022-07-19T03:44:45;23.30;99.90
21246;DHT22;10781;50.928;4.440;2022-07-19T03:47:11;23.40;99.90
21246;DHT22;10781;50.928;4.440;2022-07-19T03:49:36;23.50;99.90
21246;DHT22;10781;50.928;4.440;2022-07-19T03:52:02;23.40;99.90
21246;DHT22;10781;50.928;4.440;2022-07-19T03:54:28;23.40;99.90
21246;DHT22;10781;50.928;4.440;2022-07-19T03:56:53;23.30;99.90
21246;DHT22;10781;50.928;4.440;2022-07-19T03:59:21;23.30;99.90
21246;DHT22;10781;50.928;4.440;2022-07-19T04:01:48;23.30;99.90
21246;DHT22;10781;50.928;4.440;2022-07-19T04:04:14;23.20;99.90
21246;DHT22;10781;50.928;4.440;2022-07-19T04:06:40;23.30;99.90
21246;DHT22;10781;50.928;4.440;2022-07-19T04:09:05;23.30;99.90
21246;DHT22;10781;50.928;4.440;2022-07-19T04:11:31;23.40;99.90
21246;DHT22;10781;50.928;4.440;2022-07-19T04:13:57;23.40;99.90
21246;DHT22;10781;50.928;4.440;2022-07-19T04:16:23;23.50;99.90
21246;DHT22;10781;50.928;4.440;2022-07-19T04:18:48;23.50;99.90
21246;DHT22;10781;50.928;4.440;2022-07-19T04:21:14;23.50;99.90
21246;DHT22;10781;50.928;4.440;2022-07-19T04:23:39;23.50;99.90
21246;DHT22;10781;50.928;4.440;2022-07-19T04:26:05;23.50;99.90
21246;DHT22;10781;50.928;4.440;2022-07-19T04:28:31;23.40;99.90
21246;DHT22;10781;50.928;4.440;2022-07-19T04:30:56;23.40;99.90
21246;DHT22;10781;50.928;4.440;2022-07-19T04:33:22;23.50;99.90
21246;DHT22;10781;50.928;4.440;2022-07-19T04:35:48;23.30;99.90
21246;DHT22;10781;50.928;4.440;2022-07-19T04:38:13;23.10;99.90
21246;DHT22;10781;50.928;4.440;2022-07-19T04:40:39;23.20;99.90
21246;DHT22;10781;50.928;4.440;2022-07-19T04:43:05;23.40;99.90
21246;DHT22;10781;50.928;4.440;2022-07-19T04:45:31;23.30;99.90
21246;DHT22;10781;50.928;4.440;2022-07-19T04:47:57;23.00;99.90
21246;DHT22;10781;50.928;4.440;2022-07-19T04:50:22;22.70;99.90
21246;DHT22;10781;50.928;4.440;2022-07-19T04:52:48;22.60;99.90
21246;DHT22;10781;50.928;4.440;2022-07-19T04:55:14;22.60;99.90
21246;DHT22;10781;50.928;4.440;2022-07-19T04:57:40;23.00;99.90
21246;DHT22;10781;50.928;4.440;2022-07-19T05:00:08;23.10;99.90
21246;DHT22;10781;50.928;4.440;2022-07-19T05:02:38;23.00;99.90
21246;DHT22;10781;50.928;4.440;2022-07-19T05:05:05;23.30;99.90
21246;DHT22;10781;50.928;4.440;2022-07-19T05:07:31;23.50;99.90
21246;DHT22;10781;50.928;4.440;2022-07-19T05:09:57;23.60;99.90
21246;DHT22;10781;50.928;4.440;2022-07-19T05:12:23;23.50;99.90
21246;DHT22;10781;50.928;4.440;2022-07-19T05:14:48;23.50;99.90
21246;DHT22;10781;50.928;4.440;2022-07-19T05:17:14;23.80;99.90
21246;DHT22;10781;50.928;4.440;2022-07-19T05:19:40;24.10;99.90
21246;DHT22;10781;50.928;4.440;2022-07-19T05:22:06;24.20;99.90
21246;DHT22;10781;50.928;4.440;2022-07-19T05:24:32;24.10;99.90
21246;DHT22;10781;50.928;4.440;2022-07-19T05:26:57;24.30;99.90
21246;DHT22;10781;50.928;4.440;2022-07-19T05:29:23;24.40;99.90
21246;DHT22;10781;50.928;4.440;2022-07-19T05:31:48;24.40;99.90
21246;DHT22;10781;50.928;4.440;2022-07-19T05:34:14;24.40;99.90
21246;DHT22;10781;50.928;4.440;2022-07-19T05:36:40;24.40;99.90
21246;DHT22;10781;50.928;4.440;2022-07-19T05:39:06;24.50;99.90
21246;DHT22;10781;50.928;4.440;2022-07-19T05:41:32;24.60;99.90
21246;DHT22;10781;50.928;4.440;2022-07-19T05:43:57;24.80;99.90
21246;DHT22;10781;50.928;4.440;2022-07-19T05:46:23;24.90;99.90
21246;DHT22;10781;50.928;4.440;2022-07-19T05:48:49;25.10;99.90
21246;DHT22;10781;50.928;4.440;2022-07-19T05:51:15;25.30;99.90
21246;DHT22;10781;50.928;4.440;2022-07-19T05:53:41;25.50;99.90
21246;DHT22;10781;50.928;4.440;2022-07-19T05:56:07;25.70;99.90
21246;DHT22;10781;50.928;4.440;2022-07-19T05:58:33;25.70;99.90
21246;DHT22;10781;50.928;4.440;2022-07-19T06:00:59;25.70;99.90
21246;DHT22;10781;50.928;4.440;2022-07-19T06:04:01;25.70;99.90
21246;DHT22;10781;50.928;4.440;2022-07-19T06:06:30;25.70;99.90
21246;DHT22;10781;50.928;4.440;2022-07-19T06:08:57;25.70;99.90
21246;DHT22;10781;50.928;4.440;2022-07-19T06:11:23;25.90;99.90
21246;DHT22;10781;50.928;4.440;2022-07-19T06:13:49;26.10;99.90
21246;DHT22;10781;50.928;4.440;2022-07-19T06:16:16;26.30;99.90
21246;DHT22;10781;50.928;4.440;2022-07-19T06:18:41;26.40;99.90
21246;DHT22;10781;50.928;4.440;2022-07-19T06:21:09;26.50;99.90
21246;DHT22;10781;50.928;4.440;2022-07-19T06:23:36;26.50;99.90
21246;DHT22;10781;50.928;4.440;2022-07-19T06:26:03;26.50;99.90
21246;DHT22;10781;50.928;4.440;2022-07-19T06:28:29;26.80;99.90
21246;DHT22;10781;50.928;4.440;2022-07-19T06:30:54;27.10;99.90
21246;DHT22;10781;50.928;4.440;2022-07-19T06:33:20;27.40;99.90
21246;DHT22;10781;50.928;4.440;2022-07-19T06:35:46;27.50;99.90
21246;DHT22;10781;50.928;4.440;2022-07-19T06:38:12;27.60;99.90
21246;DHT22;10781;50.928;4.440;2022-07-19T06:40:37;27.90;99.20
21246;DHT22;10781;50.928;4.440;2022-07-19T06:43:03;28.10;98.50
21246;DHT22;10781;50.928;4.440;2022-07-19T06:45:29;28.30;97.80
21246;DHT22;10781;50.928;4.440;2022-07-19T06:47:54;28.50;96.60
21246;DHT22;10781;50.928;4.440;2022-07-19T06:50:20;28.60;96.90
21246;DHT22;10781;50.928;4.440;2022-07-19T06:52:46;28.60;96.40
21246;DHT22;10781;50.928;4.440;2022-07-19T06:55:13;28.80;96.00
21246;DHT22;10781;50.928;4.440;2022-07-19T06:57:39;29.00;93.90
21246;DHT22;10781;50.928;4.440;2022-07-19T07:00:06;29.20;93.60
21246;DHT22;10781;50.928;4.440;2022-07-19T07:02:33;29.20;90.90
21246;DHT22;10781;50.928;4.440;2022-07-19T07:04:58;29.30;89.20
21246;DHT22;10781;50.928;4.440;2022-07-19T07:07:24;29.40;88.40
21246;DHT22;10781;50.928;4.440;2022-07-19T07:09:50;29.70;87.10
21246;DHT22;10781;50.928;4.440;2022-07-19T07:12:15;29.90;85.40
21246;DHT22;10781;50.928;4.440;2022-07-19T07:14:41;30.00;83.80
21246;DHT22;10781;50.928;4.440;2022-07-19T07:17:07;30.00;79.70
21246;DHT22;10781;50.928;4.440;2022-07-19T07:19:32;30.20;81.20
21246;DHT22;10781;50.928;4.440;2022-07-19T07:21:58;30.70;77.40
21246;DHT22;10781;50.928;4.440;2022-07-19T07:24:26;32.20;73.70
21246;DHT22;10781;50.928;4.440;2022-07-19T07:26:52;34.20;68.30
21246;DHT22;10781;50.928;4.440;2022-07-19T07:29:17;35.80;62.30
21246;DHT22;10781;50.928;4.440;2022-07-19T07:31:43;36.50;57.20
21246;DHT22;10781;50.928;4.440;2022-07-19T07:34:09;36.70;54.00
21246;DHT22;10781;50.928;4.440;2022-07-19T07:36:35;36.70;52.60
21246;DHT22;10781;50.928;4.440;2022-07-19T07:39:00;38.20;50.20
21246;DHT22;10781;50.928;4.440;2022-07-19T07:41:26;39.20;47.20
21246;DHT22;10781;50.928;4.440;2022-07-19T07:43:52;39.70;45.50
21246;DHT22;10781;50.928;4.440;2022-07-19T07:46:17;39.90;42.70
21246;DHT22;10781;50.928;4.440;2022-07-19T07:48:43;40.30;41.50
21246;DHT22;10781;50.928;4.440;2022-07-19T07:51:09;40.90;40.20
21246;DHT22;10781;50.928;4.440;2022-07-19T07:53:34;41.50;38.30
21246;DHT22;10781;50.928;4.440;2022-07-19T07:56:00;42.50;39.20
21246;DHT22;10781;50.928;4.440;2022-07-19T07:58:26;42.70;37.20
21246;DHT22;10781;50.928;4.440;2022-07-19T08:00:51;42.80;36.20
21246;DHT22;10781;50.928;4.440;2022-07-19T08:03:17;42.40;36.40
21246;DHT22;10781;50.928;4.440;2022-07-19T08:05:43;42.90;36.80
21246;DHT22;10781;50.928;4.440;2022-07-19T08:08:13;43.80;35.50
21246;DHT22;10781;50.928;4.440;2022-07-19T08:10:39;44.00;35.20
21246;DHT22;10781;50.928;4.440;2022-07-19T08:13:05;43.70;34.20
21246;DHT22;10781;50.928;4.440;2022-07-19T08:15:31;43.60;34.40
21246;DHT22;10781;50.928;4.440;2022-07-19T08:17:56;42.90;34.20
21246;DHT22;10781;50.928;4.440;2022-07-19T08:20:22;43.80;34.40
21246;DHT22;10781;50.928;4.440;2022-07-19T08:22:48;43.20;33.40
21246;DHT22;10781;50.928;4.440;2022-07-19T08:25:13;42.40;33.80
21246;DHT22;10781;50.928;4.440;2022-07-19T08:27:43;39.90;35.70
21246;DHT22;10781;50.928;4.440;2022-07-19T08:30:09;40.30;35.60
21246;DHT22;10781;50.928;4.440;2022-07-19T08:32:36;40.00;36.50
21246;DHT22;10781;50.928;4.440;2022-07-19T08:35:02;40.00;36.90
21246;DHT22;10781;50.928;4.440;2022-07-19T08:37:27;40.80;36.00
21246;DHT22;10781;50.928;4.440;2022-07-19T08:39:54;40.10;36.10
21246;DHT22;10781;50.928;4.440;2022-07-19T08:42:20;40.00;35.90
21246;DHT22;10781;50.928;4.440;2022-07-19T08:44:52;39.50;35.70
21246;DHT22;10781;50.928;4.440;2022-07-19T08:47:21;39.50;35.40
21246;DHT22;10781;50.928;4.440;2022-07-19T08:49:48;40.70;35.50
21246;DHT22;10781;50.928;4.440;2022-07-19T08:52:14;39.90;35.00
21246;DHT22;10781;50.928;4.440;2022-07-19T08:54:41;39.70;35.40
21246;DHT22;10781;50.928;4.440;2022-07-19T08:57:07;40.60;35.10
21246;DHT22;10781;50.928;4.440;2022-07-19T08:59:51;39.60;35.70
21246;DHT22;10781;50.928;4.440;2022-07-19T09:02:17;40.60;35.30
21246;DHT22;10781;50.928;4.440;2022-07-19T09:04:43;40.00;34.50
21246;DHT22;10781;50.928;4.440;2022-07-19T09:07:09;40.40;34.00
21246;DHT22;10781;50.928;4.440;2022-07-19T09:09:35;39.80;34.40
21246;DHT22;10781;50.928;4.440;2022-07-19T09:12:04;38.90;35.00
21246;DHT22;10781;50.928;4.440;2022-07-19T09:14:35;38.10;34.90
21246;DHT22;10781;50.928;4.440;2022-07-19T09:17:08;38.30;35.50
21246;DHT22;10781;50.928;4.440;2022-07-19T09:19:44;39.40;35.20
21246;DHT22;10781;50.928;4.440;2022-07-19T09:22:13;39.50;34.70
21246;DHT22;10781;50.928;4.440;2022-07-19T09:24:57;39.60;34.20
21246;DHT22;10781;50.928;4.440;2022-07-19T09:27:23;39.30;35.20
21246;DHT22;10781;50.928;4.440;2022-07-19T09:29:55;39.80;34.40
21246;DHT22;10781;50.928;4.440;2022-07-19T09:32:23;40.70;33.60
21246;DHT22;10781;50.928;4.440;2022-07-19T09:34:53;41.90;32.40
21246;DHT22;10781;50.928;4.440;2022-07-19T09:39:49;43.00;30.40
21246;DHT22;10781;50.928;4.440;2022-07-19T09:42:38;43.00;30.20
21246;DHT22;10781;50.928;4.440;2022-07-19T09:45:08;43.90;29.90
21246;DHT22;10781;50.928;4.440;2022-07-19T09:47:42;44.50;29.20
21246;DHT22;10781;50.928;4.440;2022-07-19T09:50:13;44.40;29.20
21246;DHT22;10781;50.928;4.440;2022-07-19T09:52:42;44.20;29.10
21246;DHT22;10781;50.928;4.440;2022-07-19T09:55:09;43.00;29.80
21246;DHT22;10781;50.928;4.440;2022-07-19T09:57:45;43.00;29.90
21246;DHT22;10781;50.928;4.440;2022-07-19T10:00:13;41.60;30.30
21246;DHT22;10781;50.928;4.440;2022-07-19T10:02:41;41.40;31.00
21246;DHT22;10781;50.928;4.440;2022-07-19T10:05:08;42.50;30.80
21246;DHT22;10781;50.928;4.440;2022-07-19T10:07:34;41.50;30.80
21246;DHT22;10781;50.928;4.440;2022-07-19T10:10:05;42.10;30.30
21246;DHT22;10781;50.928;4.440;2022-07-19T10:12:32;41.90;30.10
21246;DHT22;10781;50.928;4.440;2022-07-19T10:14:59;42.50;30.10
21246;DHT22;10781;50.928;4.440;2022-07-19T10:17:38;43.90;29.70
21246;DHT22;10781;50.928;4.440;2022-07-19T10:20:09;45.10;28.40
21246;DHT22;10781;50.928;4.440;2022-07-19T10:22:39;45.70;28.10
21246;DHT22;10781;50.928;4.440;2022-07-19T10:25:12;46.10;27.60
21246;DHT22;10781;50.928;4.440;2022-07-19T10:27:43;45.10;28.20
21246;DHT22;10781;50.928;4.440;2022-07-19T10:32:40;44.90;27.60
21246;DHT22;10781;50.928;4.440;2022-07-19T10:40:40;42.50;28.20
21246;DHT22;10781;50.928;4.440;2022-07-19T10:48:50;42.90;27.70
21246;DHT22;10781;50.928;4.440;2022-07-19T10:51:30;41.90;28.50
21246;DHT22;10781;50.928;4.440;2022-07-19T10:54:09;43.50;28.20
21246;DHT22;10781;50.928;4.440;2022-07-19T10:59:04;46.00;26.50
21246;DHT22;10781;50.928;4.440;2022-07-19T11:01:32;45.70;26.40
21246;DHT22;10781;50.928;4.440;2022-07-19T11:04:24;46.50;25.70
21246;DHT22;10781;50.928;4.440;2022-07-19T11:06:50;47.60;25.70
21246;DHT22;10781;50.928;4.440;2022-07-19T11:09:16;46.90;25.30
21246;DHT22;10781;50.928;4.440;2022-07-19T11:11:42;47.10;24.90
21246;DHT22;10781;50.928;4.440;2022-07-19T11:14:07;44.80;25.10
21246;DHT22;10781;50.928;4.440;2022-07-19T11:16:33;44.90;26.70
21246;DHT22;10781;50.928;4.440;2022-07-19T11:19:07;46.60;25.80
21246;DHT22;10781;50.928;4.440;2022-07-19T11:21:34;48.00;24.80
21246;DHT22;10781;50.928;4.440;2022-07-19T11:24:02;48.50;24.40
21246;DHT22;10781;50.928;4.440;2022-07-19T11:26:35;49.10;24.10
21246;DHT22;10781;50.928;4.440;2022-07-19T11:29:02;48.90;24.00
21246;DHT22;10781;50.928;4.440;2022-07-19T11:31:27;46.50;24.40
21246;DHT22;10781;50.928;4.440;2022-07-19T11:33:54;45.90;24.80
21246;DHT22;10781;50.928;4.440;2022-07-19T11:36:22;44.50;25.70
21246;DHT22;10781;50.928;4.440;2022-07-19T11:38:50;44.00;26.10
21246;DHT22;10781;50.928;4.440;2022-07-19T11:43:57;47.10;24.70
21246;DHT22;10781;50.928;4.440;2022-07-19T11:46:37;45.80;24.80
21246;DHT22;10781;50.928;4.440;2022-07-19T11:49:04;46.30;24.80
21246;DHT22;10781;50.928;4.440;2022-07-19T11:51:32;46.30;25.00
21246;DHT22;10781;50.928;4.440;2022-07-19T11:53:59;45.60;24.80
21246;DHT22;10781;50.928;4.440;2022-07-19T11:56:33;44.50;25.40
21246;DHT22;10781;50.928;4.440;2022-07-19T11:59:02;44.80;26.40
21246;DHT22;10781;50.928;4.440;2022-07-19T12:01:34;45.50;26.50
21246;DHT22;10781;50.928;4.440;2022-07-19T12:04:08;46.10;25.20
21246;DHT22;10781;50.928;4.440;2022-07-19T12:06:46;47.10;24.90
21246;DHT22;10781;50.928;4.440;2022-07-19T12:09:14;45.70;24.80
21246;DHT22;10781;50.928;4.440;2022-07-19T12:11:46;44.70;26.80
21246;DHT22;10781;50.928;4.440;2022-07-19T12:14:28;46.70;25.90
21246;DHT22;10781;50.928;4.440;2022-07-19T12:17:20;46.40;25.30
21246;DHT22;10781;50.928;4.440;2022-07-19T12:19:51;45.40;25.80
21246;DHT22;10781;50.928;4.440;2022-07-19T12:22:37;45.70;25.50
21246;DHT22;10781;50.928;4.440;2022-07-19T12:25:05;46.90;25.50
21246;DHT22;10781;50.928;4.440;2022-07-19T12:27:32;47.40;25.00
21246;DHT22;10781;50.928;4.440;2022-07-19T12:29:58;46.90;24.70
21246;DHT22;10781;50.928;4.440;2022-07-19T12:37:32;45.60;25.80
21246;DHT22;10781;50.928;4.440;2022-07-19T12:43:07;45.50;26.00
21246;DHT22;10781;50.928;4.440;2022-07-19T12:45:40;44.30;26.20
21246;DHT22;10781;50.928;4.440;2022-07-19T12:48:08;44.80;26.30
21246;DHT22;10781;50.928;4.440;2022-07-19T12:50:46;45.90;25.80
21246;DHT22;10781;50.928;4.440;2022-07-19T12:53:15;46.40;25.90
21246;DHT22;10781;50.928;4.440;2022-07-19T12:55:42;45.10;25.20
21246;DHT22;10781;50.928;4.440;2022-07-19T12:58:12;44.70;25.90
21246;DHT22;10781;50.928;4.440;2022-07-19T13:00:39;45.80;25.20
21246;DHT22;10781;50.928;4.440;2022-07-19T13:03:05;44.70;24.90
21246;DHT22;10781;50.928;4.440;2022-07-19T13:05:32;44.50;25.90
21246;DHT22;10781;50.928;4.440;2022-07-19T13:07:58;44.90;26.00
21246;DHT22;10781;50.928;4.440;2022-07-19T13:10:25;46.00;26.20
21246;DHT22;10781;50.928;4.440;2022-07-19T13:12:51;47.10;25.20
21246;DHT22;10781;50.928;4.440;2022-07-19T13:15:17;48.10;24.60
21246;DHT22;10781;50.928;4.440;2022-07-19T13:17:43;48.20;24.40
21246;DHT22;10781;50.928;4.440;2022-07-19T13:20:10;48.30;24.30
21246;DHT22;10781;50.928;4.440;2022-07-19T13:22:37;47.60;24.10
21246;DHT22;10781;50.928;4.440;2022-07-19T13:25:03;47.90;24.20
21246;DHT22;10781;50.928;4.440;2022-07-19T13:27:30;46.60;23.20
21246;DHT22;10781;50.928;4.440;2022-07-19T13:29:56;46.00;23.90
21246;DHT22;10781;50.928;4.440;2022-07-19T13:32:22;47.50;23.10
21246;DHT22;10781;50.928;4.440;2022-07-19T13:34:47;47.70;23.30
21246;DHT22;10781;50.928;4.440;2022-07-19T13:37:13;48.10;23.10
21246;DHT22;10781;50.928;4.440;2022-07-19T13:39:39;48.00;22.20
21246;DHT22;10781;50.928;4.440;2022-07-19T13:42:05;47.30;23.20
21246;DHT22;10781;50.928;4.440;2022-07-19T13:44:30;46.50;22.80
21246;DHT22;10781;50.928;4.440;2022-07-19T13:46:56;47.60;22.70
21246;DHT22;10781;50.928;4.440;2022-07-19T13:49:23;47.50;22.90
21246;DHT22;10781;50.928;4.440;2022-07-19T13:51:49;48.40;22.60
21246;DHT22;10781;50.928;4.440;2022-07-19T13:54:16;48.60;22.90
21246;DHT22;10781;50.928;4.440;2022-07-19T13:56:42;47.70;22.70
21246;DHT22;10781;50.928;4.440;2022-07-19T13:59:08;47.10;23.20
21246;DHT22;10781;50.928;4.440;2022-07-19T14:01:33;46.20;23.40
21246;DHT22;10781;50.928;4.440;2022-07-19T14:03:59;45.00;23.30
21246;DHT22;10781;50.928;4.440;2022-07-19T14:06:25;45.60;23.50
21246;DHT22;10781;50.928;4.440;2022-07-19T14:08:52;44.40;23.80
21246;DHT22;10781;50.928;4.440;2022-07-19T14:11:18;44.30;23.90
21246;DHT22;10781;50.928;4.440;2022-07-19T14:13:44;44.90;23.00
21246;DHT22;10781;50.928;4.440;2022-07-19T14:16:10;44.20;23.10
21246;DHT22;10781;50.928;4.440;2022-07-19T14:18:36;45.20;23.10
21246;DHT22;10781;50.928;4.440;2022-07-19T14:21:02;44.10;23.00
21246;DHT22;10781;50.928;4.440;2022-07-19T14:23:28;44.00;23.00
21246;DHT22;10781;50.928;4.440;2022-07-19T14:25:54;43.50;23.20
21246;DHT22;10781;50.928;4.440;2022-07-19T14:28:20;44.10;23.60
21246;DHT22;10781;50.928;4.440;2022-07-19T14:30:46;44.30;23.20
21246;DHT22;10781;50.928;4.440;2022-07-19T14:33:11;45.30;22.90
21246;DHT22;10781;50.928;4.440;2022-07-19T14:35:37;45.40;22.40
21246;DHT22;10781;50.928;4.440;2022-07-19T14:38:03;45.50;22.50
21246;DHT22;10781;50.928;4.440;2022-07-19T14:40:29;46.40;22.10
21246;DHT22;10781;50.928;4.440;2022-07-19T14:42:55;47.70;21.30
21246;DHT22;10781;50.928;4.440;2022-07-19T14:45:21;46.50;21.40
21246;DHT22;10781;50.928;4.440;2022-07-19T14:47:47;46.40;21.90
21246;DHT22;10781;50.928;4.440;2022-07-19T14:50:13;44.80;22.20
21246;DHT22;10781;50.928;4.440;2022-07-19T14:52:39;45.40;22.40
21246;DHT22;10781;50.928;4.440;2022-07-19T14:55:06;46.20;22.20
21246;DHT22;10781;50.928;4.440;2022-07-19T14:57:32;46.50;21.50
21246;DHT22;10781;50.928;4.440;2022-07-19T14:59:58;46.30;21.10
21246;DHT22;10781;50.928;4.440;2022-07-19T15:02:24;45.30;21.70
21246;DHT22;10781;50.928;4.440;2022-07-19T15:04:50;44.60;22.10
21246;DHT22;10781;50.928;4.440;2022-07-19T15:07:16;44.60;22.40
21246;DHT22;10781;50.928;4.440;2022-07-19T15:09:41;45.20;21.90
21246;DHT22;10781;50.928;4.440;2022-07-19T15:12:07;45.30;21.80
21246;DHT22;10781;50.928;4.440;2022-07-19T15:14:33;46.00;22.10
21246;DHT22;10781;50.928;4.440;2022-07-19T15:17:00;44.80;21.70
21246;DHT22;10781;50.928;4.440;2022-07-19T15:19:26;44.70;21.70
21246;DHT22;10781;50.928;4.440;2022-07-19T15:21:52;44.50;21.70
21246;DHT22;10781;50.928;4.440;2022-07-19T15:24:19;44.60;21.80
21246;DHT22;10781;50.928;4.440;2022-07-19T15:26:45;44.70;22.00
21246;DHT22;10781;50.928;4.440;2022-07-19T15:29:11;44.80;21.90
21246;DHT22;10781;50.928;4.440;2022-07-19T15:31:37;45.00;22.20
21246;DHT22;10781;50.928;4.440;2022-07-19T15:34:03;44.40;22.10
21246;DHT22;10781;50.928;4.440;2022-07-19T15:36:29;44.30;22.00
21246;DHT22;10781;50.928;4.440;2022-07-19T15:38:55;43.70;22.40
21246;DHT22;10781;50.928;4.440;2022-07-19T15:41:20;43.60;21.80
21246;DHT22;10781;50.928;4.440;2022-07-19T15:43:46;43.00;22.70
21246;DHT22;10781;50.928;4.440;2022-07-19T15:46:13;43.40;22.50
21246;DHT22;10781;50.928;4.440;2022-07-19T15:48:39;43.70;22.40
21246;DHT22;10781;50.928;4.440;2022-07-19T15:51:09;43.60;22.40
21246;DHT22;10781;50.928;4.440;2022-07-19T15:53:35;44.40;22.20
21246;DHT22;10781;50.928;4.440;2022-07-19T15:56:01;44.40;22.10
21246;DHT22;10781;50.928;4.440;2022-07-19T15:58:27;44.50;21.80